• Join FlightAware (Why Join?)
  • Login
  • US Flag 
11:56PM EDT


 

Airport Tracker/Info


-or-


 

Live Flight TrackerFlight Track Log ✈ JBU59 ✈ 08-Jun-2013 ✈ KBTV - KJFK

Flight Track Log - Related Links

Times and Time Zones

All times are in EDT time to prevent confusion due to time zone crossing. See the JBU59 flight status page for this flight to view local times or setup timezone preferences in your user account.

Time Position Orientation Groundspeed Altitude Reporting Facility
EDT Latitude Longitude Course Direction KTS MPH feet Rate Location/Type
06:11PM 44.4728 -73.2722 196° South 180 207 5,300  Level Boston Center
06:12PM 44.1567 -73.2663 195° South  Level FlightAware Approximate
06:12PM 44.4019 -73.2972 194° South 260 299 8,400  Level Boston Center
06:13PM 44.0787 -73.2955 195° South  Level FlightAware Approximate
06:13PM 44.2933 -73.3333 193° South 303 349 11,300  Level Boston Center
06:14PM 44.0003 -73.3222 194° South  Level FlightAware Approximate
06:14PM 44.1972 -73.3639 193° South 347 399 14,400  Level Boston Center
06:15PM 43.9217 -73.3483 193° South  Level FlightAware Approximate
06:15PM 44.0969 -73.3942 192° South 367 422 17,100  Level Boston Center
06:16PM 43.8683 -73.3694 196° South  Level FlightAware Approximate
06:16PM 43.9944 -73.4269 193° South 378 435 19,300  Level Boston Center
06:17PM 43.8881 -73.4683 196° South 385 443 21,400 2,100 Climbing Boston Center
06:18PM 43.7872 -73.5331 205° Southwest 398 458 23,500 2,280 Climbing Boston Center
06:19PM 43.6844 -73.5942 203° Southwest 404 465 26,000 1,200 Climbing Boston Center
06:20PM 43.5944 -73.6469 203° Southwest 397 457 26,000  Level Boston Center
06:21PM 43.4936 -73.7078 204° Southwest 402 463 26,000  Level Boston Center
06:22PM 43.3825 -73.7828 206° Southwest 402 463 26,000  Level Boston Center
06:23PM 43.2758 -73.8089 190° South 397 457 26,000  Level Boston Center
06:24PM 43.1611 -73.8119 181° South 402 463 26,000  Level Boston Center
06:25PM 43.0508 -73.8125 180° South 407 468 26,000  Level Boston Center
06:26PM 42.9381 -73.8128 180° South 407 468 26,000  Level Boston Center
06:27PM 42.8256 -73.8158 181° South 402 463 26,000  Level Boston Center
06:28PM 42.7131 -73.8133 179° South 402 463 26,000  Level Boston Center
06:29PM 42.6025 -73.8167 181° South 402 463 26,000  Level Boston Center
06:30PM 42.4919 -73.8197 181° South 402 463 26,000  Level Boston Center
06:31PM 42.3794 -73.8200 180° South 402 463 26,000  Level Boston Center
06:32PM 42.2669 -73.8233 181° South 402 463 26,000  Level Boston Center
06:33PM 42.1544 -73.8264 181° South 402 463 26,000  Level Boston Center
06:34PM 42.0475 -73.8603 193° South 402 463 26,000  Level Boston Center
06:35PM 41.9389 -73.8969 194° South 402 463 26,000  Level Boston Center
06:36PM 41.8633 -73.9175 191° South 402 463 26,000 -660 Level Boston Center
06:38PM 41.6092 -73.9950 193° South 394 453 24,100 -1,200 Descending New York Center
06:39PM 41.5189 -74.0211 192° South 388 447 22,300 -1,920 Descending New York Center
06:40PM 41.4200 -74.0522 193° South 377 434 20,300 -1,200 Descending New York Center
06:41PM 41.3308 -74.1142 208° Southwest 372 428 20,000 -180 Descending New York Center
06:42PM 41.2458 -74.1789 210° Southwest 360 414 20,000 -420 Level New York Center
06:43PM 41.1436 -74.1764 179° South 347 399 19,200 -540 Descending New York Center
06:44PM 41.0361 -74.1547 171° South 365 420 19,000 -120 Descending New York Center
06:45PM 40.9367 -74.1358 172° South 359 413 19,000 -180 Level New York Center
06:46PM 40.8744 -74.0506 134° Southeast 334 384 18,700 -1,260 Descending New York Center
06:47PM 40.7833 -73.9667 145° Southeast 313 360 16,300 -1,980 Descending New York TRACON
06:48PM 40.7000 -73.9500 171° South 309 356 14,600 -1,380 Descending New York TRACON
06:49PM 40.6167 -73.9333 171° South 295 339 13,600 -780 Descending New York TRACON
06:50PM 40.5500 -73.8667 143° Southeast 295 339 13,100 -1,140 Descending New York TRACON
06:51PM 40.4833 -73.8500 169° South 249 287 11,400 -1,920 Descending New York TRACON
06:52PM 40.4167 -73.8333 169° South 263 303 9,300 -1,620 Descending New York TRACON
06:53PM 40.3333 -73.8000 163° South 252 290 8,100 -600 Descending New York TRACON
06:54PM 40.2833 -73.7667 153° Southeast 261 300 8,100 -540 Level New York TRACON
06:55PM 40.3000 -73.6833 75° East 247 284 7,100 -540 Descending New York TRACON
06:56PM 40.3500 -73.6333 37° Northeast 246 283 7,100  Level New York TRACON
06:57PM 40.4167 -73.5833 30° Northeast 242 278 7,100  Level New York TRACON
06:58PM 40.4667 -73.5500 27° Northeast 244 281 7,100 -480 Level New York TRACON
06:59PM 40.5333 -73.5000 30° Northeast 240 276 6,300 -900 Descending New York TRACON
07:00PM 40.5833 -73.4833 14° North 230 265 5,300 -1,020 Descending New York TRACON
07:01PM 40.6500 -73.4833 360° North 218 251 4,300 -600 Descending New York TRACON
07:02PM 40.7000 -73.4833 360° North 192 221 4,100 -420 Descending New York TRACON
07:03PM 40.7333 -73.5333 311° West 174 200 3,500 -840 Descending New York TRACON
07:04PM 40.7667 -73.5833 311° West 160 184 2,500 -1,020 Descending New York TRACON